Chenango Bridge, New York
Current Conditions -  °F | °C
As of 3:53 PM on Sunday 23 Nov 2014 (Local Time) from KBGM Reporting Station
Overcast Overcast  
Wind Chill: 42°   Ceiling: 10000
Heat Index: 46°   Visibility: 10mi
Dew Point: 35°   Wind: 7mph
Humidity: 66%   Direction: 150°SSE
Pressure: 30.03"   Gusts: NA
Location:  42.17°N, 75.86°W
Report Text: KBGM 232053Z 15006KT 10SM OVC100 08/02 A3003 RMK AO2 SLP178 60001 T00780017 56016
Loading
Personal Weather Stations






























Interactive Weather Map New forecast layout! Learn more

10-Day Weather Forecast

Advertisements
Track Severe Weather on mobile